sensor_id;sensor_type;location;lat;lon;timestamp;P1;durP1;ratioP1;P2;durP2;ratioP2
25637;SDS011;13496;51.040;13.680;2022-12-07T00:02:28;1.60;;;1.50;;
25637;SDS011;13496;51.040;13.680;2022-12-07T00:07:30;1.90;;;1.70;;
25637;SDS011;13496;51.040;13.680;2022-12-07T00:12:31;2.17;;;1.97;;
25637;SDS011;13496;51.040;13.680;2022-12-07T00:17:33;1.60;;;1.50;;
25637;SDS011;13496;51.040;13.680;2022-12-07T00:22:35;1.83;;;1.73;;
25637;SDS011;13496;51.040;13.680;2022-12-07T00:27:36;2.10;;;1.77;;
25637;SDS011;13496;51.040;13.680;2022-12-07T00:32:38;1.63;;;1.53;;
25637;SDS011;13496;51.040;13.680;2022-12-07T00:37:40;2.20;;;2.07;;
25637;SDS011;13496;51.040;13.680;2022-12-07T00:42:41;2.93;;;1.87;;
25637;SDS011;13496;51.040;13.680;2022-12-07T00:47:43;2.00;;;1.80;;
25637;SDS011;13496;51.040;13.680;2022-12-07T00:52:45;1.80;;;1.70;;
25637;SDS011;13496;51.040;13.680;2022-12-07T00:57:46;1.70;;;1.60;;
25637;SDS011;13496;51.040;13.680;2022-12-07T01:02:48;1.87;;;1.73;;
25637;SDS011;13496;51.040;13.680;2022-12-07T01:07:50;1.70;;;1.60;;
25637;SDS011;13496;51.040;13.680;2022-12-07T01:12:51;1.80;;;1.70;;
25637;SDS011;13496;51.040;13.680;2022-12-07T01:17:53;1.90;;;1.70;;
25637;SDS011;13496;51.040;13.680;2022-12-07T01:22:55;1.87;;;1.73;;
25637;SDS011;13496;51.040;13.680;2022-12-07T01:27:57;1.60;;;1.50;;
25637;SDS011;13496;51.040;13.680;2022-12-07T01:32:59;1.80;;;1.70;;
25637;SDS011;13496;51.040;13.680;2022-12-07T01:38:00;1.73;;;1.63;;
25637;SDS011;13496;51.040;13.680;2022-12-07T01:43:02;1.77;;;1.67;;
25637;SDS011;13496;51.040;13.680;2022-12-07T01:48:06;1.70;;;1.50;;
25637;SDS011;13496;51.040;13.680;2022-12-07T01:53:11;1.50;;;1.40;;
25637;SDS011;13496;51.040;13.680;2022-12-07T01:58:14;1.80;;;1.70;;
25637;SDS011;13496;51.040;13.680;2022-12-07T02:03:19;1.73;;;1.63;;
25637;SDS011;13496;51.040;13.680;2022-12-07T02:08:25;1.80;;;1.70;;
25637;SDS011;13496;51.040;13.680;2022-12-07T02:13:30;1.70;;;1.60;;
25637;SDS011;13496;51.040;13.680;2022-12-07T02:18:41;1.80;;;1.70;;
25637;SDS011;13496;51.040;13.680;2022-12-07T02:24:10;1.60;;;1.50;;
25637;SDS011;13496;51.040;13.680;2022-12-07T02:29:23;1.60;;;1.50;;
25637;SDS011;13496;51.040;13.680;2022-12-07T02:34:38;1.60;;;1.50;;
25637;SDS011;13496;51.040;13.680;2022-12-07T02:39:51;1.60;;;1.50;;
25637;SDS011;13496;51.040;13.680;2022-12-07T02:44:58;1.53;;;1.43;;
25637;SDS011;13496;51.040;13.680;2022-12-07T02:50:03;1.73;;;1.63;;
25637;SDS011;13496;51.040;13.680;2022-12-07T02:55:06;1.50;;;1.40;;
25637;SDS011;13496;51.040;13.680;2022-12-07T03:00:11;1.50;;;1.40;;
25637;SDS011;13496;51.040;13.680;2022-12-07T03:11:25;1.40;;;1.30;;
25637;SDS011;13496;51.040;13.680;2022-12-07T03:16:33;1.50;;;1.40;;
25637;SDS011;13496;51.040;13.680;2022-12-07T03:21:43;1.57;;;1.47;;
25637;SDS011;13496;51.040;13.680;2022-12-07T03:26:56;1.70;;;1.60;;
25637;SDS011;13496;51.040;13.680;2022-12-07T03:32:08;1.73;;;1.63;;
25637;SDS011;13496;51.040;13.680;2022-12-07T03:37:30;1.90;;;1.80;;
25637;SDS011;13496;51.040;13.680;2022-12-07T03:42:43;1.43;;;1.33;;
25637;SDS011;13496;51.040;13.680;2022-12-07T03:47:46;1.50;;;1.40;;
25637;SDS011;13496;51.040;13.680;2022-12-07T03:52:55;1.60;;;1.50;;
25637;SDS011;13496;51.040;13.680;2022-12-07T03:58:02;1.80;;;1.70;;
25637;SDS011;13496;51.040;13.680;2022-12-07T04:03:07;1.80;;;1.70;;
25637;SDS011;13496;51.040;13.680;2022-12-07T04:08:09;1.67;;;1.57;;
25637;SDS011;13496;51.040;13.680;2022-12-07T04:13:11;1.60;;;1.50;;
25637;SDS011;13496;51.040;13.680;2022-12-07T04:18:12;1.80;;;1.70;;
25637;SDS011;13496;51.040;13.680;2022-12-07T04:23:14;1.80;;;1.70;;
25637;SDS011;13496;51.040;13.680;2022-12-07T04:28:16;1.50;;;1.40;;
25637;SDS011;13496;51.040;13.680;2022-12-07T04:33:17;1.60;;;1.50;;
25637;SDS011;13496;51.040;13.680;2022-12-07T04:38:19;1.50;;;1.40;;
25637;SDS011;13496;51.040;13.680;2022-12-07T04:43:21;1.50;;;1.40;;
25637;SDS011;13496;51.040;13.680;2022-12-07T04:48:22;1.40;;;1.30;;
25637;SDS011;13496;51.040;13.680;2022-12-07T04:53:24;1.40;;;1.30;;
25637;SDS011;13496;51.040;13.680;2022-12-07T04:58:26;1.53;;;1.43;;
25637;SDS011;13496;51.040;13.680;2022-12-07T05:03:27;2.00;;;1.50;;
25637;SDS011;13496;51.040;13.680;2022-12-07T05:08:29;1.70;;;1.60;;
25637;SDS011;13496;51.040;13.680;2022-12-07T05:13:31;1.50;;;1.40;;
25637;SDS011;13496;51.040;13.680;2022-12-07T05:18:33;1.73;;;1.63;;
25637;SDS011;13496;51.040;13.680;2022-12-07T05:23:35;1.53;;;1.43;;
25637;SDS011;13496;51.040;13.680;2022-12-07T05:28:37;1.60;;;1.50;;
25637;SDS011;13496;51.040;13.680;2022-12-07T05:33:38;1.70;;;1.60;;
25637;SDS011;13496;51.040;13.680;2022-12-07T05:38:40;1.63;;;1.50;;
25637;SDS011;13496;51.040;13.680;2022-12-07T05:43:42;1.73;;;1.40;;
25637;SDS011;13496;51.040;13.680;2022-12-07T05:48:44;2.20;;;1.80;;
25637;SDS011;13496;51.040;13.680;2022-12-07T05:53:45;2.40;;;1.80;;
25637;SDS011;13496;51.040;13.680;2022-12-07T05:58:47;3.13;;;1.63;;
25637;SDS011;13496;51.040;13.680;2022-12-07T06:04:07;2.30;;;1.63;;
25637;SDS011;13496;51.040;13.680;2022-12-07T06:09:09;1.73;;;1.40;;
25637;SDS011;13496;51.040;13.680;2022-12-07T06:14:10;1.90;;;1.60;;
25637;SDS011;13496;51.040;13.680;2022-12-07T06:19:12;2.50;;;1.50;;
25637;SDS011;13496;51.040;13.680;2022-12-07T06:24:14;1.77;;;1.50;;
25637;SDS011;13496;51.040;13.680;2022-12-07T06:29:17;2.00;;;1.80;;
25637;SDS011;13496;51.040;13.680;2022-12-07T06:34:20;1.50;;;1.40;;
25637;SDS011;13496;51.040;13.680;2022-12-07T06:39:25;1.93;;;1.83;;
25637;SDS011;13496;51.040;13.680;2022-12-07T06:44:28;1.57;;;1.47;;
25637;SDS011;13496;51.040;13.680;2022-12-07T06:49:29;2.27;;;1.60;;
25637;SDS011;13496;51.040;13.680;2022-12-07T06:54:31;2.47;;;1.70;;
25637;SDS011;13496;51.040;13.680;2022-12-07T06:59:33;1.67;;;1.57;;
25637;SDS011;13496;51.040;13.680;2022-12-07T07:04:34;1.70;;;1.60;;
25637;SDS011;13496;51.040;13.680;2022-12-07T07:09:36;1.77;;;1.50;;
25637;SDS011;13496;51.040;13.680;2022-12-07T07:14:38;1.87;;;1.73;;
25637;SDS011;13496;51.040;13.680;2022-12-07T07:19:39;1.50;;;1.40;;
25637;SDS011;13496;51.040;13.680;2022-12-07T07:24:41;2.10;;;1.37;;
25637;SDS011;13496;51.040;13.680;2022-12-07T07:29:43;2.23;;;1.57;;
25637;SDS011;13496;51.040;13.680;2022-12-07T07:34:44;2.33;;;1.60;;
25637;SDS011;13496;51.040;13.680;2022-12-07T07:39:46;1.73;;;1.57;;
25637;SDS011;13496;51.040;13.680;2022-12-07T07:44:48;1.50;;;1.40;;
25637;SDS011;13496;51.040;13.680;2022-12-07T07:49:49;1.73;;;1.30;;
25637;SDS011;13496;51.040;13.680;2022-12-07T07:54:51;1.47;;;1.30;;
25637;SDS011;13496;51.040;13.680;2022-12-07T07:59:53;1.60;;;1.43;;
25637;SDS011;13496;51.040;13.680;2022-12-07T08:04:54;1.50;;;1.40;;
25637;SDS011;13496;51.040;13.680;2022-12-07T08:09:56;1.43;;;1.33;;
25637;SDS011;13496;51.040;13.680;2022-12-07T08:14:58;1.40;;;1.30;;
25637;SDS011;13496;51.040;13.680;2022-12-07T08:20:00;1.30;;;1.20;;
25637;SDS011;13496;51.040;13.680;2022-12-07T08:25:01;1.43;;;1.33;;
25637;SDS011;13496;51.040;13.680;2022-12-07T08:30:03;2.07;;;1.60;;
25637;SDS011;13496;51.040;13.680;2022-12-07T08:35:05;2.00;;;1.77;;
25637;SDS011;13496;51.040;13.680;2022-12-07T08:40:09;1.70;;;1.60;;
25637;SDS011;13496;51.040;13.680;2022-12-07T08:45:16;1.53;;;1.43;;
25637;SDS011;13496;51.040;13.680;2022-12-07T08:50:20;1.50;;;1.40;;
25637;SDS011;13496;51.040;13.680;2022-12-07T08:55:23;1.60;;;1.50;;
25637;SDS011;13496;51.040;13.680;2022-12-07T09:00:25;1.60;;;1.50;;
25637;SDS011;13496;51.040;13.680;2022-12-07T09:05:27;1.60;;;1.50;;
25637;SDS011;13496;51.040;13.680;2022-12-07T09:10:29;1.73;;;1.63;;
25637;SDS011;13496;51.040;13.680;2022-12-07T09:15:31;1.33;;;1.30;;
25637;SDS011;13496;51.040;13.680;2022-12-07T09:20:33;1.40;;;1.30;;
25637;SDS011;13496;51.040;13.680;2022-12-07T09:25:35;1.70;;;1.60;;
25637;SDS011;13496;51.040;13.680;2022-12-07T09:30:37;1.50;;;1.40;;
25637;SDS011;13496;51.040;13.680;2022-12-07T09:35:43;2.20;;;2.00;;
25637;SDS011;13496;51.040;13.680;2022-12-07T09:40:49;1.67;;;1.57;;
25637;SDS011;13496;51.040;13.680;2022-12-07T09:45:51;1.60;;;1.50;;
25637;SDS011;13496;51.040;13.680;2022-12-07T09:50:56;1.10;;;1.10;;
25637;SDS011;13496;51.040;13.680;2022-12-07T09:56:00;1.83;;;1.73;;
25637;SDS011;13496;51.040;13.680;2022-12-07T10:01:13;1.60;;;1.50;;
25637;SDS011;13496;51.040;13.680;2022-12-07T10:06:17;1.87;;;1.70;;
25637;SDS011;13496;51.040;13.680;2022-12-07T10:11:19;1.40;;;1.30;;
25637;SDS011;13496;51.040;13.680;2022-12-07T10:21:26;1.60;;;1.50;;
25637;SDS011;13496;51.040;13.680;2022-12-07T10:31:36;2.17;;;1.60;;
25637;SDS011;13496;51.040;13.680;2022-12-07T10:36:40;1.80;;;1.70;;
25637;SDS011;13496;51.040;13.680;2022-12-07T10:41:58;2.90;;;1.90;;
25637;SDS011;13496;51.040;13.680;2022-12-07T11:03:21;1.47;;;1.30;;
25637;SDS011;13496;51.040;13.680;2022-12-07T11:19:49;1.67;;;1.53;;
25637;SDS011;13496;51.040;13.680;2022-12-07T11:24:57;1.50;;;1.40;;
25637;SDS011;13496;51.040;13.680;2022-12-07T11:30:24;2.03;;;1.80;;
25637;SDS011;13496;51.040;13.680;2022-12-07T11:35:38;1.33;;;1.30;;
25637;SDS011;13496;51.040;13.680;2022-12-07T11:40:54;2.00;;;1.80;;
25637;SDS011;13496;51.040;13.680;2022-12-07T11:46:14;1.57;;;1.47;;
25637;SDS011;13496;51.040;13.680;2022-12-07T11:51:18;1.60;;;1.50;;
25637;SDS011;13496;51.040;13.680;2022-12-07T11:56:26;2.00;;;1.90;;
25637;SDS011;13496;51.040;13.680;2022-12-07T12:06:43;2.60;;;1.80;;
25637;SDS011;13496;51.040;13.680;2022-12-07T12:22:24;2.00;;;1.30;;
25637;SDS011;13496;51.040;13.680;2022-12-07T12:27:35;2.63;;;1.57;;
25637;SDS011;13496;51.040;13.680;2022-12-07T12:32:41;1.40;;;1.30;;
25637;SDS011;13496;51.040;13.680;2022-12-07T12:37:45;1.30;;;1.20;;
25637;SDS011;13496;51.040;13.680;2022-12-07T12:53:12;1.37;;;1.13;;
25637;SDS011;13496;51.040;13.680;2022-12-07T12:58:22;1.47;;;1.27;;
25637;SDS011;13496;51.040;13.680;2022-12-07T13:03:31;1.47;;;1.20;;
25637;SDS011;13496;51.040;13.680;2022-12-07T13:08:35;1.30;;;1.20;;
25637;SDS011;13496;51.040;13.680;2022-12-07T13:13:42;1.73;;;1.20;;
25637;SDS011;13496;51.040;13.680;2022-12-07T13:18:44;1.43;;;1.33;;
25637;SDS011;13496;51.040;13.680;2022-12-07T13:28:48;2.37;;;1.40;;
25637;SDS011;13496;51.040;13.680;2022-12-07T13:33:52;2.60;;;1.20;;
25637;SDS011;13496;51.040;13.680;2022-12-07T13:39:00;1.27;;;1.17;;
25637;SDS011;13496;51.040;13.680;2022-12-07T13:44:18;2.07;;;1.23;;
25637;SDS011;13496;51.040;13.680;2022-12-07T13:49:22;1.90;;;1.13;;
25637;SDS011;13496;51.040;13.680;2022-12-07T13:54:30;2.03;;;1.20;;
25637;SDS011;13496;51.040;13.680;2022-12-07T13:59:32;1.40;;;1.20;;
25637;SDS011;13496;51.040;13.680;2022-12-07T14:04:35;1.20;;;1.10;;
25637;SDS011;13496;51.040;13.680;2022-12-07T14:09:38;1.47;;;1.20;;
25637;SDS011;13496;51.040;13.680;2022-12-07T14:14:39;1.40;;;1.20;;
25637;SDS011;13496;51.040;13.680;2022-12-07T14:19:56;1.70;;;1.27;;
25637;SDS011;13496;51.040;13.680;2022-12-07T14:30:15;1.40;;;1.30;;
25637;SDS011;13496;51.040;13.680;2022-12-07T14:35:17;1.10;;;1.10;;
25637;SDS011;13496;51.040;13.680;2022-12-07T14:40:21;1.60;;;1.20;;
25637;SDS011;13496;51.040;13.680;2022-12-07T14:45:28;1.60;;;1.30;;
25637;SDS011;13496;51.040;13.680;2022-12-07T14:50:31;2.60;;;1.50;;
25637;SDS011;13496;51.040;13.680;2022-12-07T14:55:38;2.03;;;1.20;;
25637;SDS011;13496;51.040;13.680;2022-12-07T15:00:39;1.30;;;1.20;;
25637;SDS011;13496;51.040;13.680;2022-12-07T15:05:41;2.20;;;1.17;;
25637;SDS011;13496;51.040;13.680;2022-12-07T15:10:43;1.23;;;1.13;;
25637;SDS011;13496;51.040;13.680;2022-12-07T15:15:45;1.43;;;1.30;;
25637;SDS011;13496;51.040;13.680;2022-12-07T15:20:47;1.20;;;1.10;;
25637;SDS011;13496;51.040;13.680;2022-12-07T15:25:49;2.10;;;1.30;;
25637;SDS011;13496;51.040;13.680;2022-12-07T15:30:51;1.40;;;1.20;;
25637;SDS011;13496;51.040;13.680;2022-12-07T15:35:53;1.93;;;1.40;;
25637;SDS011;13496;51.040;13.680;2022-12-07T15:40:55;2.73;;;1.50;;
25637;SDS011;13496;51.040;13.680;2022-12-07T15:45:56;0.97;;;0.97;;
25637;SDS011;13496;51.040;13.680;2022-12-07T15:51:16;1.93;;;1.10;;
25637;SDS011;13496;51.040;13.680;2022-12-07T15:56:18;1.97;;;1.30;;
25637;SDS011;13496;51.040;13.680;2022-12-07T16:01:20;1.77;;;1.17;;
25637;SDS011;13496;51.040;13.680;2022-12-07T16:06:21;1.33;;;1.23;;
25637;SDS011;13496;51.040;13.680;2022-12-07T16:11:23;1.30;;;1.20;;
25637;SDS011;13496;51.040;13.680;2022-12-07T16:16:25;1.63;;;1.30;;
25637;SDS011;13496;51.040;13.680;2022-12-07T16:21:28;1.20;;;1.10;;
25637;SDS011;13496;51.040;13.680;2022-12-07T16:26:30;1.10;;;1.00;;
25637;SDS011;13496;51.040;13.680;2022-12-07T16:31:32;2.57;;;1.43;;
25637;SDS011;13496;51.040;13.680;2022-12-07T16:36:33;1.80;;;1.33;;
25637;SDS011;13496;51.040;13.680;2022-12-07T16:41:35;1.77;;;1.50;;
25637;SDS011;13496;51.040;13.680;2022-12-07T16:46:37;1.27;;;1.17;;
25637;SDS011;13496;51.040;13.680;2022-12-07T16:51:40;1.73;;;1.20;;
25637;SDS011;13496;51.040;13.680;2022-12-07T16:56:44;1.27;;;1.17;;
25637;SDS011;13496;51.040;13.680;2022-12-07T17:01:45;1.70;;;1.40;;
25637;SDS011;13496;51.040;13.680;2022-12-07T17:06:47;1.50;;;1.40;;
25637;SDS011;13496;51.040;13.680;2022-12-07T17:11:49;2.70;;;1.50;;
25637;SDS011;13496;51.040;13.680;2022-12-07T17:16:50;1.93;;;1.63;;
25637;SDS011;13496;51.040;13.680;2022-12-07T17:21:52;1.87;;;1.57;;
25637;SDS011;13496;51.040;13.680;2022-12-07T17:26:54;2.30;;;1.83;;
25637;SDS011;13496;51.040;13.680;2022-12-07T17:31:55;2.13;;;1.80;;
25637;SDS011;13496;51.040;13.680;2022-12-07T17:36:57;2.40;;;2.20;;
25637;SDS011;13496;51.040;13.680;2022-12-07T17:41:59;1.60;;;1.50;;
25637;SDS011;13496;51.040;13.680;2022-12-07T17:47:19;2.90;;;1.90;;
25637;SDS011;13496;51.040;13.680;2022-12-07T17:52:22;2.13;;;1.93;;
25637;SDS011;13496;51.040;13.680;2022-12-07T17:57:42;1.93;;;1.83;;
25637;SDS011;13496;51.040;13.680;2022-12-07T18:02:44;2.73;;;1.77;;
25637;SDS011;13496;51.040;13.680;2022-12-07T18:07:46;2.90;;;2.23;;
25637;SDS011;13496;51.040;13.680;2022-12-07T18:12:48;2.40;;;2.20;;
25637;SDS011;13496;51.040;13.680;2022-12-07T18:17:49;3.17;;;2.53;;
25637;SDS011;13496;51.040;13.680;2022-12-07T18:22:52;2.33;;;2.13;;
25637;SDS011;13496;51.040;13.680;2022-12-07T18:27:53;2.70;;;2.50;;
25637;SDS011;13496;51.040;13.680;2022-12-07T18:32:55;3.50;;;3.13;;
25637;SDS011;13496;51.040;13.680;2022-12-07T18:37:57;3.37;;;3.00;;
25637;SDS011;13496;51.040;13.680;2022-12-07T18:42:59;3.33;;;3.03;;
25637;SDS011;13496;51.040;13.680;2022-12-07T18:48:01;4.83;;;3.93;;
25637;SDS011;13496;51.040;13.680;2022-12-07T18:53:03;5.23;;;4.63;;
25637;SDS011;13496;51.040;13.680;2022-12-07T18:58:05;7.50;;;6.17;;
25637;SDS011;13496;51.040;13.680;2022-12-07T19:03:07;7.83;;;6.97;;
25637;SDS011;13496;51.040;13.680;2022-12-07T19:08:09;13.00;;;9.40;;
25637;SDS011;13496;51.040;13.680;2022-12-07T19:13:10;18.53;;;13.30;;
25637;SDS011;13496;51.040;13.680;2022-12-07T19:18:12;21.50;;;14.67;;
25637;SDS011;13496;51.040;13.680;2022-12-07T19:23:14;20.47;;;14.53;;
25637;SDS011;13496;51.040;13.680;2022-12-07T19:28:15;20.80;;;14.57;;
25637;SDS011;13496;51.040;13.680;2022-12-07T19:33:17;18.60;;;14.07;;
25637;SDS011;13496;51.040;13.680;2022-12-07T19:38:19;16.93;;;13.50;;
25637;SDS011;13496;51.040;13.680;2022-12-07T19:43:20;20.30;;;15.13;;
25637;SDS011;13496;51.040;13.680;2022-12-07T19:48:22;19.87;;;15.17;;
25637;SDS011;13496;51.040;13.680;2022-12-07T19:53:23;18.20;;;14.23;;
25637;SDS011;13496;51.040;13.680;2022-12-07T19:58:25;17.33;;;14.93;;
25637;SDS011;13496;51.040;13.680;2022-12-07T20:03:27;20.03;;;14.87;;
25637;SDS011;13496;51.040;13.680;2022-12-07T20:08:29;19.77;;;15.27;;
25637;SDS011;13496;51.040;13.680;2022-12-07T20:13:30;21.23;;;15.23;;
25637;SDS011;13496;51.040;13.680;2022-12-07T20:18:32;17.70;;;15.13;;
25637;SDS011;13496;51.040;13.680;2022-12-07T20:23:34;18.53;;;14.73;;
25637;SDS011;13496;51.040;13.680;2022-12-07T20:28:36;20.13;;;15.43;;
25637;SDS011;13496;51.040;13.680;2022-12-07T20:33:38;19.13;;;15.10;;
25637;SDS011;13496;51.040;13.680;2022-12-07T20:38:39;19.83;;;15.20;;
25637;SDS011;13496;51.040;13.680;2022-12-07T20:43:42;18.17;;;14.70;;
25637;SDS011;13496;51.040;13.680;2022-12-07T20:48:44;18.73;;;14.63;;
25637;SDS011;13496;51.040;13.680;2022-12-07T20:53:45;18.67;;;14.13;;
25637;SDS011;13496;51.040;13.680;2022-12-07T20:58:47;17.00;;;13.40;;
25637;SDS011;13496;51.040;13.680;2022-12-07T21:03:52;18.93;;;15.00;;
25637;SDS011;13496;51.040;13.680;2022-12-07T21:08:57;22.13;;;14.40;;
25637;SDS011;13496;51.040;13.680;2022-12-07T21:13:59;17.77;;;14.40;;
25637;SDS011;13496;51.040;13.680;2022-12-07T21:19:02;17.70;;;14.17;;
25637;SDS011;13496;51.040;13.680;2022-12-07T21:24:05;18.30;;;14.37;;
25637;SDS011;13496;51.040;13.680;2022-12-07T21:29:08;15.40;;;12.70;;
25637;SDS011;13496;51.040;13.680;2022-12-07T21:34:10;19.37;;;14.37;;
25637;SDS011;13496;51.040;13.680;2022-12-07T21:39:11;16.57;;;13.13;;
25637;SDS011;13496;51.040;13.680;2022-12-07T21:44:13;17.00;;;13.60;;
25637;SDS011;13496;51.040;13.680;2022-12-07T21:49:15;16.30;;;13.30;;
25637;SDS011;13496;51.040;13.680;2022-12-07T21:54:16;15.47;;;12.73;;
25637;SDS011;13496;51.040;13.680;2022-12-07T21:59:18;15.53;;;12.63;;
25637;SDS011;13496;51.040;13.680;2022-12-07T22:04:22;14.30;;;11.93;;
25637;SDS011;13496;51.040;13.680;2022-12-07T22:09:25;13.53;;;11.80;;
25637;SDS011;13496;51.040;13.680;2022-12-07T22:14:30;16.10;;;11.90;;
25637;SDS011;13496;51.040;13.680;2022-12-07T22:19:50;13.40;;;11.47;;
25637;SDS011;13496;51.040;13.680;2022-12-07T22:24:52;13.93;;;11.50;;
25637;SDS011;13496;51.040;13.680;2022-12-07T22:29:53;14.17;;;11.17;;
25637;SDS011;13496;51.040;13.680;2022-12-07T22:34:55;15.23;;;11.60;;
25637;SDS011;13496;51.040;13.680;2022-12-07T22:39:57;12.33;;;11.03;;
25637;SDS011;13496;51.040;13.680;2022-12-07T22:44:59;12.07;;;9.93;;
25637;SDS011;13496;51.040;13.680;2022-12-07T22:50:01;13.87;;;10.90;;
25637;SDS011;13496;51.040;13.680;2022-12-07T22:55:02;10.23;;;9.13;;
25637;SDS011;13496;51.040;13.680;2022-12-07T23:00:04;12.63;;;9.73;;
25637;SDS011;13496;51.040;13.680;2022-12-07T23:05:09;10.67;;;9.47;;
25637;SDS011;13496;51.040;13.680;2022-12-07T23:10:12;11.57;;;9.80;;
25637;SDS011;13496;51.040;13.680;2022-12-07T23:15:13;10.97;;;9.53;;
25637;SDS011;13496;51.040;13.680;2022-12-07T23:20:15;10.33;;;9.20;;
25637;SDS011;13496;51.040;13.680;2022-12-07T23:25:17;10.13;;;8.83;;
25637;SDS011;13496;51.040;13.680;2022-12-07T23:30:19;10.93;;;8.97;;
25637;SDS011;13496;51.040;13.680;2022-12-07T23:35:21;11.00;;;8.80;;
25637;SDS011;13496;51.040;13.680;2022-12-07T23:40:22;11.27;;;8.80;;
25637;SDS011;13496;51.040;13.680;2022-12-07T23:45:24;10.63;;;8.57;;
25637;SDS011;13496;51.040;13.680;2022-12-07T23:50:26;8.97;;;7.77;;
25637;SDS011;13496;51.040;13.680;2022-12-07T23:55:27;9.37;;;7.80;;
